Airfield :
LOGIN :

Register | Disclaimer

   EN    FR    IT 

 










Legend :    VFR   Marginal VFR   IFR   Intensive IFR   Very Intensive IFR
Visi :
Ceiling :
>= 8 km
>= 3000ft
5 to 8 km
1000 to 3000 ft
1500m to 5 km
500 to 1000 ft
800 to 1500m
200 to 500 ft
< 800m
< 200 ft
Symbols :   Thunderstorms  Fog  Heavy snow  Heavy precipitations  Wind > 20 kt
SIGMETs :     Misc.  Thunderstorms  Icing  Turbulence  Mountain Waves  Volcanic Ashes






- Airport Elevation : 1649 ft
- IATA code : HHN


EDFH - Frankfurt-Hahn Rhineland-Palatinate

CURRENT METAR :
  • 162320Z 15009KT 0200 R21/0325N FZFG VV/// M01/M01 Q1011

EXPIRED METARs :
  • 162250Z 15010KT 0200 R21/0275N FZFG VV/// M00/M01 Q1011
  • 162220Z 15009KT 0200 R21/0275N FG VV/// 00/M00 Q1011
  • 162150Z 14010KT 0200 R21/0400D FG VV/// 01/00 Q1011
  • 162120Z 15008KT 6000 NSC 00/00 Q1010
  • 162050Z 14007KT 7000 NSC 01/00 Q1010

TAF TAF EDFH
Valid from the 17 at 00:00 until the 18 at 00:00 UTC


162300Z 1700/1724 14010KT 0200 FZFG VV000
PROB30
TEMPO 1704/1710 1500 BR BKN002
BECMG 1706/1708 08007KT
BECMG 1710/1712 01010KT 9999 NSW SCT004
PROB30
TEMPO 1714/1719 1500 RASN BKN005
BECMG 1718/1720 4000 BR BKN004
TEMPO 1720/1724 0400 FG BKN001



MET'MAP, your aeronautical weather chart ! - Copyright ORBIFLY December 2007 - Disclaimer

ORBIFLY MET'MAP TEAM :

Programming & Development : Alexandra Zaïnal
Concept & Development : Baudouin d'Aumeries
Co-Development & Prog : Marc-Olivier Méhu
Technical & hardware support : Manuel Goepfert

Contact : metmap@orbifly.com




SOURCES & CREDITS :

   NOAA